Ethel, Missouri
Current Conditions -  °F | °C
As of 6:55 PM on Monday 20 Oct 2014 (Local Time) from KIRK Reporting Station
Clear Clear  
Wind Chill: 58°   Ceiling: Unl
Heat Index: 58°   Visibility: 10mi
Dew Point: 43°   Wind: 3mph
Humidity: 58%   Direction: 310°NW
Pressure: 30.03"   Gusts: NA
Location:  39.89°N, 92.74°W
Report Text: KIRK 202355Z AUTO 31003KT 10SM CLR 14/06 A3003 RMK AO2 SLP171 T01440061 10211 20144 53008
Loading
Personal Weather Stations






























Interactive Weather Map
Tropical Storm Tracking
New forecast layout! Learn more

10-Day Weather Forecast

Advertisements
Track Severe Weather on mobile